Portada
METAR-TAF:

METAR-TAF

Aeroports :

Breslau, Polònia

latitud: 51-06N, longitud: 016-53E, altitud: 120 m

Observació

L'informe es va fer fa 25 minuts, a les 19:00 UTC
Vent 2 kt amb direcció variable
Temperatura 19°C
Humitat 49%
Pressió 1020 hPa
Visibilitat 10 km o més
sense núvols per sota de 1500 mi sense presència de cumulonimbus.

METAR: EPWR 141900Z VRB02KT CAVOK 19/08 Q1020

Hora: 21:25 (19:25 UTC)

Pronòstic

L'informe es va fer fa 1 hora i 55 minuts, a les 17:30 UTC
Pronòstic vàlid del 14 a les 18 UTC al 15 a les 18 UTC
Vent 2 kt amb direcció variable
Visibilitat 10 km o més
sense núvols per sota de 1500 mi sense presència de cumulonimbus.
Probabilitat 30% :
Temporalment
l' 15 a les 15 UTC al 15 a les 18 UTC
Cel ennuvolat a una alçada de 4000 ft, Cumulonimbus.

TAF: EPWR 141730Z 1418/1518 VRB02KT CAVOK PROB30 TEMPO 1515/1518 BKN040CB

Observacions i pronòstics meteorològics de més de 4000 aeroports (METAR i TAF).

Les estacions disponibles són els punts grocs i vermells al mapa.

Posi el ratolí al punt desitjat per veure el nom de l'estació.

Feu clic per veure les observacions i els pronòstics meteorològics.

Per canviar el mapa: feu clic els botons verds amb una creu de color negre per apropar; al botó verd amb un guió per allunyar la imatge; o en les fletxes verdes per a mapes adjacents.


METAR-TAF: